Time;durP1;ratioP1;P1;durP2;ratioP2;P2;SDS_P1;SDS_P2;PMS_P1;PMS_P2;Temp;Humidity;BMP_temperature;BMP_pressure;BME280_temperature;BME280_humidity;BME280_pressure;Samples;Min_cycle;Max_cycle;Signal;HPM_P1;HPM_P2
2023/02/24 00:03:38;;;;;;;21.48;10.88;;;;;;;10.15;69.02;97159.03;10504071;28;20108;-80
2023/02/24 00:08:59;;;;;;;19.38;10.68;;;;;;;10.11;69.58;97161.56;10475470;28;20044;-80
2023/02/24 00:14:20;;;;;;;19.90;10.68;;;;;;;9.99;70.24;97153.22;10489249;28;20048;-79
2023/02/24 00:19:41;;;;;;;18.90;11.20;;;;;;;9.97;70.43;97147.53;10474356;28;20041;-80
2023/02/24 00:25:03;;;;;;;22.13;11.98;;;;;;;9.93;70.18;97145.19;10474561;28;20094;-79
2023/02/24 00:30:24;;;;;;;18.67;11.35;;;;;;;9.90;70.18;97135.25;10487448;28;20051;-79
2023/02/24 00:35:45;;;;;;;23.83;11.32;;;;;;;9.89;70.56;97133.81;10486921;28;20040;-80
2023/02/24 00:41:13;;;;;;;18.80;11.02;;;;;;;9.93;71.02;97130.53;10473410;28;20045;-80
2023/02/24 00:46:36;;;;;;;18.42;11.15;;;;;;;9.91;71.25;97120.00;10473571;28;20052;-79
2023/02/24 00:51:58;;;;;;;16.52;10.38;;;;;;;9.87;71.07;97114.19;10443291;28;20040;-79
2023/02/24 00:57:20;;;;;;;18.48;11.07;;;;;;;9.84;71.32;97106.28;10438177;28;20044;-79
2023/02/24 01:02:46;;;;;;;16.95;10.00;;;;;;;9.82;71.69;97095.03;10464092;28;20082;-79
2023/02/24 01:08:08;;;;;;;17.42;10.68;;;;;;;9.79;72.37;97090.66;10457726;28;20056;-79
2023/02/24 01:13:28;;;;;;;17.27;9.77;;;;;;;9.76;72.40;97092.63;10451071;28;20072;-79
2023/02/24 01:18:50;;;;;;;17.33;10.45;;;;;;;9.80;72.52;97095.63;10452018;28;20471;-79
2023/02/24 01:24:14;;;;;;;16.23;9.57;;;;;;;9.79;72.81;97077.47;10478626;28;20041;-80
2023/02/24 01:29:38;;;;;;;15.68;9.85;;;;;;;9.76;72.31;97075.91;10465709;28;20048;-79
2023/02/24 01:35:01;;;;;;;13.88;8.43;;;;;;;9.81;72.45;97085.94;10458082;28;20029;-79
2023/02/24 01:40:25;;;;;;;17.95;9.23;;;;;;;9.79;72.27;97074.66;10474031;28;20041;-79
2023/02/24 01:45:50;;;;;;;15.50;9.07;;;;;;;9.75;72.77;97071.66;10461506;28;20052;-80
2023/02/24 01:51:11;;;;;;;13.13;8.80;;;;;;;9.70;72.58;97067.16;10475682;28;20040;-79
2023/02/24 01:56:35;;;;;;;15.73;9.30;;;;;;;9.66;72.59;97061.34;10467711;28;20051;-79
2023/02/24 02:02:05;;;;;;;13.70;8.60;;;;;;;9.65;72.92;97057.09;10424030;28;20047;-79
2023/02/24 02:07:27;;;;;;;13.60;8.35;;;;;;;9.67;72.78;97054.44;10435037;28;20475;-79
2023/02/24 02:12:50;;;;;;;12.38;7.95;;;;;;;9.64;72.68;97056.38;10447988;28;20051;-80
2023/02/24 02:18:35;;;;;;;14.63;8.90;;;;;;;9.64;72.74;97048.00;10433993;28;20395;-79
2023/02/24 02:24:21;;;;;;;15.23;8.20;;;;;;;9.64;72.43;97038.91;10449577;28;20064;-79
2023/02/24 02:29:52;;;;;;;13.68;8.45;;;;;;;9.61;72.83;97037.34;10460611;28;20479;-79
2023/02/24 02:35:45;;;;;;;13.95;8.43;;;;;;;9.60;72.84;97035.91;10460148;28;20048;-79
2023/02/24 02:41:22;;;;;;;14.73;8.35;;;;;;;9.54;72.78;97035.53;10428744;28;20057;-79
2023/02/24 02:46:45;;;;;;;11.82;8.13;;;;;;;9.55;72.62;97034.19;10420326;28;20067;-79
2023/02/24 02:52:14;;;;;;;14.83;8.20;;;;;;;9.51;72.78;97022.81;10432309;28;20068;-79
2023/02/24 02:57:37;;;;;;;11.57;7.75;;;;;;;9.48;73.04;97024.03;10419402;28;20384;-79
2023/02/24 03:03:02;;;;;;;13.98;7.43;;;;;;;9.45;73.28;97023.91;10445368;28;20068;-79
2023/02/24 03:08:26;;;;;;;16.48;7.85;;;;;;;9.45;73.04;97014.81;10418252;28;20052;-79
2023/02/24 03:13:49;;;;;;;12.15;7.88;;;;;;;9.41;73.20;97006.94;10431239;28;20486;-79
2023/02/24 03:19:12;;;;;;;12.60;7.82;;;;;;;9.41;73.45;96998.59;10431208;28;20052;-79
2023/02/24 03:24:37;;;;;;;12.45;7.85;;;;;;;9.42;73.38;96993.75;10431063;28;20442;-79
2023/02/24 03:30:08;;;;;;;17.08;8.48;;;;;;;9.41;73.25;96984.66;10433098;28;20044;-79
2023/02/24 03:35:33;;;;;;;14.25;7.90;;;;;;;9.38;73.46;96974.75;10431001;28;20037;-79
2023/02/24 03:40:55;;;;;;;15.07;8.68;;;;;;;9.40;73.48;96979.72;10430537;28;20091;-79
2023/02/24 03:46:20;;;;;;;15.90;8.90;;;;;;;9.38;73.64;96971.22;10443890;28;20071;-79
2023/02/24 03:51:55;;;;;;;14.95;8.32;;;;;;;9.37;73.73;96964.94;10416017;28;20561;-79
2023/02/24 03:57:23;;;;;;;13.65;8.20;;;;;;;9.37;73.47;96964.22;10443933;28;20049;-79
2023/02/24 04:02:44;;;;;;;15.68;8.55;;;;;;;9.40;73.64;96963.72;10443234;28;20041;-79
2023/02/24 04:08:07;;;;;;;12.98;7.53;;;;;;;9.37;73.51;96967.00;10415852;28;20040;-79
2023/02/24 04:13:42;;;;;;;12.38;8.07;;;;;;;9.34;73.53;96949.41;10443054;28;20045;-79
2023/02/24 04:19:15;;;;;;;14.38;8.88;;;;;;;9.34;73.70;96960.56;10456741;28;20114;-78
2023/02/24 04:24:38;;;;;;;13.75;8.93;;;;;;;9.32;73.81;96960.44;10427373;28;20091;-78
2023/02/24 04:29:59;;;;;;;15.55;8.80;;;;;;;9.26;74.16;96959.34;10429245;28;20052;-79
2023/02/24 04:35:21;;;;;;;13.27;8.20;;;;;;;9.25;74.02;96953.06;10415664;28;20048;-79
2023/02/24 04:40:44;;;;;;;15.15;8.90;;;;;;;9.24;74.12;96943.25;10442976;28;20041;-79
2023/02/24 04:46:06;;;;;;;14.07;8.38;;;;;;;9.20;73.88;96934.66;10415243;28;20057;-79
2023/02/24 04:51:30;;;;;;;14.95;9.02;;;;;;;9.20;74.56;96933.94;10442839;28;20072;-79
2023/02/24 04:56:51;;;;;;;12.63;8.13;;;;;;;9.12;74.52;96915.41;10429365;28;20067;-79
2023/02/24 05:02:14;;;;;;;15.27;8.40;;;;;;;9.16;74.42;96912.13;10442979;28;20299;-79
2023/02/24 05:07:40;;;;;;;12.45;8.15;;;;;;;9.15;74.53;96916.25;10450571;28;20537;-79
2023/02/24 05:13:01;;;;;;;15.88;8.63;;;;;;;9.09;74.75;96916.63;10438064;28;20048;-79
2023/02/24 05:18:28;;;;;;;14.02;8.57;;;;;;;9.12;74.99;96914.69;10451718;28;20041;-79
2023/02/24 05:23:50;;;;;;;17.92;8.70;;;;;;;9.11;74.68;96907.66;10449874;28;20079;-79
2023/02/24 05:29:12;;;;;;;14.75;8.93;;;;;;;9.07;74.58;96907.41;10421894;28;20048;-79
2023/02/24 05:34:32;;;;;;;15.45;9.07;;;;;;;9.06;74.79;96903.19;10435152;28;20047;-78
2023/02/24 05:39:54;;;;;;;16.20;9.82;;;;;;;9.06;75.08;96886.47;10438378;28;20045;-79
2023/02/24 05:45:17;;;;;;;17.05;8.75;;;;;;;9.08;75.16;96890.13;10469465;28;20056;-79
2023/02/24 05:50:38;;;;;;;14.93;8.85;;;;;;;9.08;74.88;96878.28;10476543;28;20114;-79
2023/02/24 05:56:00;;;;;;;14.38;8.52;;;;;;;9.12;74.71;96876.44;10476321;28;20123;-79
2023/02/24 06:01:22;;;;;;;13.55;8.48;;;;;;;9.12;74.94;96884.06;10475650;28;20044;-80
2023/02/24 06:06:42;;;;;;;14.18;8.80;;;;;;;9.13;75.05;96880.66;10476023;28;20052;-80
2023/02/24 06:12:03;;;;;;;16.77;9.23;;;;;;;9.15;75.09;96880.78;10476752;28;20083;-79
2023/02/24 06:17:25;;;;;;;12.52;8.57;;;;;;;9.17;74.99;96875.34;10490230;28;20032;-79
2023/02/24 06:22:47;;;;;;;19.55;10.60;;;;;;;9.22;74.74;96873.53;10484232;28;20040;-80
2023/02/24 06:28:08;;;;;;;15.85;9.40;;;;;;;9.26;74.99;96870.97;10497130;28;20102;-80
2023/02/24 06:33:30;;;;;;;15.73;8.75;;;;;;;9.26;74.62;96870.25;10475948;28;20435;-80
2023/02/24 06:38:52;;;;;;;18.45;9.88;;;;;;;9.29;74.69;96861.41;10475932;28;20113;-80
2023/02/24 06:44:13;;;;;;;15.35;9.25;;;;;;;9.39;74.74;96862.00;10448774;28;20380;-80
2023/02/24 06:49:36;;;;;;;18.20;9.98;;;;;;;9.43;74.74;96847.56;10449750;28;20064;-80
2023/02/24 06:54:57;;;;;;;16.58;9.23;;;;;;;9.45;74.46;96847.69;10437387;28;20596;-79
2023/02/24 07:00:19;;;;;;;18.05;10.38;;;;;;;9.50;74.45;96843.81;10452892;28;20525;-80
2023/02/24 07:06:09;;;;;;;17.25;9.82;;;;;;;9.78;74.40;96841.91;10423216;28;20110;-80
2023/02/24 07:11:32;;;;;;;17.42;10.30;;;;;;;9.90;73.76;96850.94;10459204;28;20045;-80
2023/02/24 07:16:54;;;;;;;17.58;9.70;;;;;;;9.96;73.38;96842.91;10471343;28;20056;-80
2023/02/24 07:22:23;;;;;;;15.02;9.30;;;;;;;10.00;73.56;96839.59;10460642;28;20045;-79
2023/02/24 07:27:45;;;;;;;15.30;9.65;;;;;;;10.13;73.47;96838.94;10488834;28;20376;-78
2023/02/24 07:33:07;;;;;;;15.43;9.70;;;;;;;10.19;72.71;96832.97;10488074;28;20056;-78
2023/02/24 07:38:29;;;;;;;16.08;9.73;;;;;;;10.30;72.43;96823.81;10473791;28;20036;-78
2023/02/24 07:43:51;;;;;;;16.23;10.13;;;;;;;10.52;71.87;96816.66;10461190;28;20077;-77
2023/02/24 07:49:14;;;;;;;17.00;10.23;;;;;;;10.76;70.65;96808.09;10446874;28;20037;-78
2023/02/24 07:54:38;;;;;;;18.63;10.30;;;;;;;10.73;70.73;96807.28;10434121;28;20044;-78
2023/02/24 07:59:59;;;;;;;14.43;9.90;;;;;;;10.77;70.69;96796.31;10447924;28;20048;-78
2023/02/24 08:05:21;;;;;;;18.95;9.23;;;;;;;10.86;69.77;96797.44;10433919;28;20040;-79
2023/02/24 08:10:43;;;;;;;15.32;8.95;;;;;;;11.18;70.59;96796.28;10449205;28;20489;-77
2023/02/24 08:16:05;;;;;;;15.40;9.45;;;;;;;11.49;69.64;96803.41;10435446;28;20041;-77
2023/02/24 08:21:26;;;;;;;13.77;8.73;;;;;;;11.99;67.45;96788.34;10435926;28;20041;-77
2023/02/24 08:27:03;;;;;;;15.18;8.98;;;;;;;14.79;68.73;96784.44;10438413;28;20371;-78
2023/02/24 08:32:23;;;;;;;13.15;8.90;;;;;;;15.44;56.79;96785.94;10442550;28;20052;-77
2023/02/24 08:37:52;;;;;;;12.93;8.65;;;;;;;13.48;60.17;96777.28;10464513;28;20403;-79
2023/02/24 08:43:18;;;;;;;13.43;9.00;;;;;;;12.52;61.45;96776.00;10442931;28;20045;-79
2023/02/24 08:48:45;;;;;;;15.55;8.98;;;;;;;12.10;63.17;96761.56;10457692;28;20056;-79
2023/02/24 08:54:09;;;;;;;16.42;9.18;;;;;;;12.43;63.31;96763.72;10471108;28;20384;-79
2023/02/24 08:59:37;;;;;;;15.13;9.30;;;;;;;13.51;60.86;96756.38;10445070;28;20044;-79
2023/02/24 09:05:02;;;;;;;14.48;8.93;;;;;;;17.91;55.38;96752.13;10473039;28;20051;-80
2023/02/24 09:10:23;;;;;;;14.55;8.27;;;;;;;19.25;52.40;96753.44;10453020;28;20116;-79
2023/02/24 09:15:44;;;;;;;11.65;7.72;;;;;;;18.91;50.50;96745.03;10447734;28;20060;-79
2023/02/24 09:22:04;;;;;;;10.90;7.55;;;;;;;19.97;51.31;96747.56;10462249;28;20498;-83
2023/02/24 09:26:58;;;;;;;9.95;6.68;;;;;;;23.36;39.46;96727.00;10461177;28;20065;-80
2023/02/24 09:32:19;;;;;;;14.63;6.80;;;;;;;20.90;43.35;96738.88;10461840;28;20060;-81
2023/02/24 09:37:41;;;;;;;11.45;6.53;;;;;;;19.47;42.57;96716.31;10475916;28;20049;-80
2023/02/24 09:43:09;;;;;;;9.45;6.60;;;;;;;17.42;43.46;96711.44;10461915;28;20049;-80
2023/02/24 09:48:47;;;;;;;8.43;6.20;;;;;;;16.54;44.44;96713.34;10461468;28;20049;-80
2023/02/24 09:54:13;;;;;;;10.18;5.97;;;;;;;17.66;45.53;96690.81;10433281;28;20045;-80
2023/02/24 10:00:23;;;;;;;9.82;5.00;;;;;;;21.04;44.59;96690.81;10447533;28;20048;-79
2023/02/24 10:05:47;;;;;;;9.77;6.38;;;;;;;23.39;37.79;96682.84;10471727;28;20409;-81
2023/02/24 10:11:09;;;;;;;8.50;5.40;;;;;;;22.62;34.43;96674.16;10474110;28;20048;-81
2023/02/24 10:16:40;;;;;;;6.85;4.00;;;;;;;23.27;31.84;96665.06;10433021;28;20041;-78
2023/02/24 10:22:21;;;;;;;7.80;3.80;;;;;;;27.87;27.84;96650.50;10473133;28;20102;-82
2023/02/24 10:28:11;;;;;;;6.80;3.38;;;;;;;32.06;20.34;96649.72;10460045;28;20116;-82
2023/02/24 10:33:37;;;;;;;9.27;3.85;;;;;;;26.19;21.42;96642.88;10459915;28;20072;-80
2023/02/24 10:39:07;;;;;;;7.35;3.28;;;;;;;27.19;23.06;96630.13;10459832;28;20479;-81
2023/02/24 10:44:34;;;;;;;4.63;2.40;;;;;;;30.64;17.95;96620.34;10446374;28;20068;-81
2023/02/24 10:50:00;;;;;;;5.78;2.38;;;;;;;23.60;20.86;96617.38;10446237;28;20041;-80
2023/02/24 10:55:27;;;;;;;7.93;2.85;;;;;;;19.29;24.56;96607.13;10445432;28;20057;-78
2023/02/24 11:01:11;;;;;;;6.63;2.90;;;;;;;16.68;29.67;96603.88;10459843;28;20045;-81
2023/02/24 11:06:51;;;;;;;8.07;3.80;;;;;;;15.35;31.40;96585.34;10448101;28;20091;-79
2023/02/24 11:18:00;;;;;;;8.18;3.78;;;;;;;14.63;34.41;96558.47;10467278;28;20045;-78
2023/02/24 11:23:28;;;;;;;10.15;4.10;;;;;;;14.22;35.01;96540.25;10466466;28;20072;-77
2023/02/24 11:29:19;;;;;;;10.38;3.65;;;;;;;15.26;35.76;96527.44;10451604;28;20045;-79
2023/02/24 11:34:48;;;;;;;7.25;3.70;;;;;;;15.81;35.32;96517.06;10479469;28;20048;-79
2023/02/24 11:40:18;;;;;;;10.02;4.35;;;;;;;16.14;35.10;96508.13;10466188;28;20049;-80
2023/02/24 11:45:45;;;;;;;6.20;2.90;;;;;;;15.73;34.53;96501.41;10477095;28;20057;-80
2023/02/24 11:51:12;;;;;;;6.00;2.45;;;;;;;14.92;35.16;96499.00;10464747;28;20502;-77
2023/02/24 11:56:44;;;;;;;7.55;2.90;;;;;;;14.55;36.07;96495.03;10458972;28;20041;-77
2023/02/24 12:02:32;;;;;;;8.55;3.08;;;;;;;14.14;36.55;96481.75;10446550;28;20501;-79
2023/02/24 12:07:56;;;;;;;5.10;1.92;;;;;;;14.15;36.72;96471.25;10480871;28;20467;-78
2023/02/24 12:13:36;;;;;;;5.05;1.55;;;;;;;14.04;36.96;96473.72;10481822;28;20045;-79
2023/02/24 12:19:03;;;;;;;4.25;1.40;;;;;;;13.66;39.45;96478.00;10469434;28;20102;-77
2023/02/24 12:24:24;;;;;;;5.32;2.28;;;;;;;13.73;40.63;96451.63;10455814;28;20386;-77
2023/02/24 12:30:05;;;;;;;4.53;2.15;;;;;;;14.86;39.27;96440.56;10475732;28;20044;-77
2023/02/24 12:35:35;;;;;;;4.65;2.22;;;;;;;14.40;39.54;96441.91;10462930;28;20040;-77
2023/02/24 12:41:09;;;;;;;6.10;2.95;;;;;;;14.42;40.12;96423.03;10485230;28;20041;-77
2023/02/24 12:46:34;;;;;;;6.15;2.97;;;;;;;15.02;39.94;96403.78;10474022;28;20506;-76
2023/02/24 12:52:03;;;;;;;6.22;3.03;;;;;;;15.22;39.14;96394.47;10468249;28;20043;-76
2023/02/24 12:57:40;;;;;;;7.72;3.05;;;;;;;14.95;39.25;96385.31;10450162;28;20037;-76
2023/02/24 13:03:40;;;;;;;7.07;3.10;;;;;;;14.50;39.97;96383.28;10478891;28;20040;-76
2023/02/24 13:09:36;;;;;;;7.32;2.88;;;;;;;14.09;40.64;96392.47;10474375;28;20040;-75
2023/02/24 13:14:58;;;;;;;7.32;2.70;;;;;;;13.84;41.82;96377.66;10461452;28;20044;-76
2023/02/24 13:20:29;;;;;;;4.93;2.80;;;;;;;13.58;41.67;96359.97;10473642;28;20040;-76
2023/02/24 13:25:51;;;;;;;7.05;3.47;;;;;;;13.36;42.26;96351.50;10476642;28;20036;-75
2023/02/24 13:31:13;;;;;;;7.32;3.35;;;;;;;13.35;42.10;96342.38;10446866;28;20041;-77
2023/02/24 13:36:35;;;;;;;6.05;3.35;;;;;;;13.24;41.63;96329.41;10452136;28;20045;-77
2023/02/24 13:42:18;;;;;;;6.70;3.03;;;;;;;13.11;41.31;96317.00;10481999;28;20033;-77
2023/02/24 13:48:10;;;;;;;5.28;2.30;;;;;;;12.89;40.47;96308.56;10463667;28;20068;-77
2023/02/24 13:53:50;;;;;;;4.35;1.88;;;;;;;12.76;39.99;96311.56;10482215;28;20471;-76
2023/02/24 13:59:49;;;;;;;7.57;2.42;;;;;;;12.97;40.28;96296.91;10483878;28;20040;-77
2023/02/24 14:05:32;;;;;;;5.45;2.25;;;;;;;13.11;40.47;96305.09;10477935;28;20058;-78
2023/02/24 14:10:56;;;;;;;6.57;2.17;;;;;;;13.03;40.67;96290.81;10473302;28;20049;-77
2023/02/24 14:16:20;;;;;;;11.82;2.42;;;;;;;12.90;40.94;96276.38;10456996;28;20045;-78
2023/02/24 14:21:58;;;;;;;8.05;2.40;;;;;;;12.81;40.75;96280.25;10479194;28;20037;-81
2023/02/24 14:27:25;;;;;;;4.53;1.83;;;;;;;12.69;40.55;96267.91;10446154;28;20049;-78
2023/02/24 14:32:46;;;;;;;5.47;2.30;;;;;;;12.78;40.78;96259.16;10467834;28;20052;-81
2023/02/24 14:38:27;;;;;;;4.90;1.58;;;;;;;12.82;40.63;96252.97;10495840;28;20118;-78
2023/02/24 14:43:49;;;;;;;10.88;2.10;;;;;;;12.86;40.77;96244.72;10472501;28;20040;-78
2023/02/24 14:49:29;;;;;;;5.57;2.30;;;;;;;12.77;40.69;96240.91;10466626;28;20037;-78
2023/02/24 14:54:59;;;;;;;7.07;2.58;;;;;;;12.65;40.79;96223.72;10441037;28;20075;-78
2023/02/24 15:00:27;;;;;;;8.45;2.55;;;;;;;12.49;41.16;96229.44;10444665;28;20049;-78
2023/02/24 15:05:51;;;;;;;6.75;2.92;;;;;;;12.41;41.06;96217.25;10452558;28;20132;-77
2023/02/24 15:11:15;;;;;;;4.60;2.57;;;;;;;12.29;41.38;96207.03;10470966;28;20041;-77
2023/02/24 15:16:38;;;;;;;6.53;3.13;;;;;;;12.11;41.34;96202.88;10507019;28;20045;-77
2023/02/24 15:21:59;;;;;;;7.00;2.92;;;;;;;11.87;41.78;96188.69;10442862;28;20059;-79
2023/02/24 15:27:26;;;;;;;6.95;2.88;;;;;;;11.74;42.32;96181.91;10491494;28;20064;-79
2023/02/24 15:32:47;;;;;;;7.88;2.97;;;;;;;11.60;42.73;96176.50;10488715;28;20095;-80
2023/02/24 15:38:22;;;;;;;6.68;3.33;;;;;;;11.49;42.78;96173.94;10450707;28;20123;-78
2023/02/24 15:43:46;;;;;;;6.95;2.65;;;;;;;11.40;43.36;96161.75;10470391;28;20045;-77
2023/02/24 15:49:08;;;;;;;5.45;2.95;;;;;;;11.21;43.80;96154.72;10487312;28;20052;-77
2023/02/24 15:54:30;;;;;;;5.60;2.85;;;;;;;11.12;43.97;96162.06;10433842;28;20045;-77
2023/02/24 15:59:51;;;;;;;9.07;3.15;;;;;;;11.06;44.23;96145.06;10446010;28;20055;-78
2023/02/24 16:05:12;;;;;;;6.55;3.03;;;;;;;10.96;44.58;96141.84;10447916;28;20052;-77
2023/02/24 16:10:33;;;;;;;6.85;3.40;;;;;;;10.93;45.20;96134.75;10449463;28;20036;-78
2023/02/24 16:15:55;;;;;;;6.30;2.95;;;;;;;10.80;45.46;96133.53;10459711;28;20102;-78
2023/02/24 16:21:16;;;;;;;10.50;3.10;;;;;;;10.71;45.72;96125.47;10471648;28;20049;-79
2023/02/24 16:26:38;;;;;;;11.07;3.60;;;;;;;10.58;45.93;96119.38;10468449;28;20052;-79
2023/02/24 16:31:59;;;;;;;7.95;3.35;;;;;;;10.47;46.39;96116.81;10448936;28;20041;-78
2023/02/24 16:37:26;;;;;;;6.85;3.70;;;;;;;10.39;46.61;96108.81;10435247;28;20045;-78
2023/02/24 16:42:47;;;;;;;10.25;3.17;;;;;;;10.28;46.72;96120.91;10448749;28;20067;-78
2023/02/24 16:48:20;;;;;;;6.60;3.10;;;;;;;10.25;46.95;96116.59;10434569;28;20057;-76
2023/02/24 16:53:41;;;;;;;7.13;3.13;;;;;;;10.24;47.39;96112.38;10447410;28;20041;-76
2023/02/24 16:59:02;;;;;;;7.85;2.90;;;;;;;10.22;47.40;96109.50;10463911;28;20475;-77
2023/02/24 17:04:23;;;;;;;7.20;3.60;;;;;;;10.15;47.54;96099.41;10458132;28;20040;-78
2023/02/24 17:09:45;;;;;;;10.82;4.25;;;;;;;10.03;47.61;96100.31;10457818;28;20120;-76
2023/02/24 17:15:07;;;;;;;5.93;3.50;;;;;;;10.00;47.61;96098.78;10454001;28;20045;-77
2023/02/24 17:20:29;;;;;;;7.80;3.87;;;;;;;10.01;47.39;96096.72;10451164;28;20041;-76
2023/02/24 17:25:55;;;;;;;6.22;3.53;;;;;;;9.99;47.15;96099.44;10449812;28;20295;-76
2023/02/24 17:31:16;;;;;;;8.38;3.35;;;;;;;9.91;47.25;96094.22;10449355;28;20124;-76
2023/02/24 17:36:37;;;;;;;8.80;3.05;;;;;;;9.91;47.06;96094.22;10451520;28;20547;-76
2023/02/24 17:41:58;;;;;;;8.63;3.38;;;;;;;9.86;46.83;96077.97;10449610;28;20110;-76
2023/02/24 17:47:19;;;;;;;6.97;3.45;;;;;;;9.70;46.96;96097.47;10436594;28;20502;-76
2023/02/24 17:52:41;;;;;;;6.75;2.97;;;;;;;9.60;47.12;96097.03;10448329;28;20045;-77
2023/02/24 17:58:02;;;;;;;8.98;3.92;;;;;;;9.54;47.39;96091.88;10434047;28;20479;-76
2023/02/24 18:03:23;;;;;;;7.65;4.22;;;;;;;9.53;47.46;96084.88;10434781;28;20041;-76
2023/02/24 18:08:45;;;;;;;11.23;4.07;;;;;;;9.55;47.69;96081.47;10450084;28;20037;-77
2023/02/24 18:14:06;;;;;;;10.35;4.50;;;;;;;9.55;47.10;96070.31;10449611;28;20044;-80
2023/02/24 18:19:29;;;;;;;9.32;4.03;;;;;;;9.45;47.05;96068.50;10443378;28;20045;-78
2023/02/24 18:24:50;;;;;;;7.80;3.50;;;;;;;9.42;47.26;96066.28;10454728;28;20045;-79
2023/02/24 18:30:16;;;;;;;7.30;3.45;;;;;;;9.38;47.07;96052.91;10436229;28;20107;-79
2023/02/24 18:35:37;;;;;;;7.60;3.83;;;;;;;9.35;47.15;96042.28;10449577;28;20041;-80
2023/02/24 18:41:06;;;;;;;9.77;4.05;;;;;;;9.33;46.83;96033.84;10421238;28;20079;-78
2023/02/24 18:46:27;;;;;;;8.23;3.42;;;;;;;9.33;47.34;96040.13;10433809;28;20084;-77
2023/02/24 18:51:48;;;;;;;6.35;3.65;;;;;;;9.30;47.05;96029.53;10432477;28;20052;-77
2023/02/24 18:57:09;;;;;;;9.25;4.25;;;;;;;9.13;47.20;96016.94;10460995;28;20510;-78
2023/02/24 19:02:32;;;;;;;14.05;4.45;;;;;;;9.06;47.58;96018.72;10473169;28;20040;-76
2023/02/24 19:07:53;;;;;;;8.00;4.38;;;;;;;9.04;47.69;96009.56;10444556;28;20479;-77
2023/02/24 19:13:15;;;;;;;7.70;4.05;;;;;;;8.99;47.63;96013.53;10431270;28;20414;-77
2023/02/24 19:18:37;;;;;;;10.00;4.60;;;;;;;8.93;47.92;95999.34;10430751;28;20080;-76
2023/02/24 19:24:00;;;;;;;8.30;3.83;;;;;;;8.89;47.66;95994.31;10443398;28;20037;-76
2023/02/24 19:29:21;;;;;;;9.25;4.47;;;;;;;8.85;47.80;95999.66;10444041;28;20497;-77
2023/02/24 19:34:42;;;;;;;9.13;4.78;;;;;;;8.82;47.55;95996.09;10444092;28;20055;-77
2023/02/24 19:40:04;;;;;;;11.80;4.60;;;;;;;8.79;47.60;95986.22;10473163;28;20051;-78
2023/02/24 19:45:25;;;;;;;9.55;5.07;;;;;;;8.81;47.75;95977.97;10471968;28;20056;-78
2023/02/24 19:50:47;;;;;;;11.15;4.88;;;;;;;8.84;48.10;95985.03;10458017;28;20063;-79
2023/02/24 19:56:09;;;;;;;10.23;4.90;;;;;;;8.87;48.03;95994.91;10483998;28;20040;-77
2023/02/24 20:01:30;;;;;;;9.95;5.47;;;;;;;8.82;48.35;95987.75;10498230;28;20045;-77
2023/02/24 20:06:51;;;;;;;9.57;5.25;;;;;;;8.74;49.33;95998.50;10467370;28;20055;-77
2023/02/24 20:12:13;;;;;;;11.95;6.15;;;;;;;8.65;50.04;95998.75;10470154;28;20170;-78
2023/02/24 20:17:34;;;;;;;10.15;5.43;;;;;;;8.49;50.44;96015.38;10483894;28;20055;-78
2023/02/24 20:22:55;;;;;;;10.30;5.20;;;;;;;8.36;50.53;96016.84;10483871;28;20440;-78
2023/02/24 20:28:19;;;;;;;8.50;4.05;;;;;;;8.22;51.69;96011.31;10483916;28;20048;-78
2023/02/24 20:33:41;;;;;;;7.47;3.58;;;;;;;8.10;51.52;95999.59;10483718;28;20078;-78
2023/02/24 20:39:05;;;;;;;6.82;3.50;;;;;;;7.96;51.97;96007.22;10469796;28;20094;-78
2023/02/24 20:44:27;;;;;;;6.85;3.05;;;;;;;7.82;51.67;95998.22;10483238;28;20060;-77
2023/02/24 20:49:48;;;;;;;7.78;3.63;;;;;;;7.66;51.59;96009.22;10469346;28;20116;-77
2023/02/24 20:55:10;;;;;;;5.90;2.25;;;;;;;7.52;52.66;96006.41;10469045;28;20048;-78
2023/02/24 21:00:33;;;;;;;4.82;2.38;;;;;;;7.50;52.73;96000.78;10482964;28;20051;-78
2023/02/24 21:05:55;;;;;;;5.45;2.33;;;;;;;7.50;52.59;96000.06;10470051;28;20127;-79
2023/02/24 21:11:30;;;;;;;6.07;2.63;;;;;;;7.45;52.63;96001.91;10474644;28;20055;-79
2023/02/24 21:16:51;;;;;;;5.10;2.13;;;;;;;7.43;53.09;95987.91;10483042;28;20052;-79
2023/02/24 21:22:12;;;;;;;3.47;1.60;;;;;;;7.29;53.34;95974.03;10469569;28;20047;-78
2023/02/24 21:27:34;;;;;;;4.10;1.77;;;;;;;7.23;53.13;95975.75;10496844;28;20410;-78
2023/02/24 21:32:55;;;;;;;3.53;1.60;;;;;;;7.20;53.73;95971.44;10471512;28;20043;-78
2023/02/24 21:38:17;;;;;;;2.60;1.08;;;;;;;7.14;53.56;95964.25;10457619;28;20051;-78
2023/02/24 21:43:41;;;;;;;5.45;1.80;;;;;;;7.12;53.62;95955.81;10483306;28;20390;-78
2023/02/24 21:49:04;;;;;;;2.65;1.17;;;;;;;7.05;53.77;95967.94;10480016;28;20045;-79
2023/02/24 21:54:26;;;;;;;2.97;1.17;;;;;;;7.01;54.01;95959.41;10488538;28;20386;-77
2023/02/24 21:59:47;;;;;;;3.65;1.45;;;;;;;6.97;54.32;95966.81;10487833;28;20045;-77
2023/02/24 22:05:09;;;;;;;2.97;1.42;;;;;;;6.96;54.43;95968.13;10473104;28;20151;-78
2023/02/24 22:10:30;;;;;;;3.63;1.55;;;;;;;6.95;54.81;95969.44;10475060;28;20048;-78
2023/02/24 22:15:52;;;;;;;3.40;1.40;;;;;;;6.91;54.62;95956.09;10488840;28;20049;-77
2023/02/24 22:21:17;;;;;;;2.67;1.00;;;;;;;6.86;54.91;95957.22;10488918;28;20139;-78
2023/02/24 22:26:39;;;;;;;2.08;1.00;;;;;;;6.83;55.07;95959.16;10489786;28;20040;-78
2023/02/24 22:32:01;;;;;;;2.08;0.90;;;;;;;6.84;55.13;95954.31;10477445;28;20044;-78
2023/02/24 22:37:22;;;;;;;2.00;0.70;;;;;;;6.84;54.72;95951.56;10475367;28;20531;-77
2023/02/24 22:42:44;;;;;;;3.17;0.70;;;;;;;6.80;55.16;95945.81;10473885;28;20041;-78
2023/02/24 22:48:05;;;;;;;1.40;0.40;;;;;;;6.73;54.94;95938.50;10487177;28;20052;-78
2023/02/24 22:53:28;;;;;;;1.55;0.55;;;;;;;6.68;54.97;95947.94;10473169;28;20044;-78
2023/02/24 22:58:50;;;;;;;1.17;0.50;;;;;;;6.71;54.80;95957.81;10486005;28;20047;-78
2023/02/24 23:04:13;;;;;;;0.80;0.20;;;;;;;6.67;55.17;95958.31;10472457;28;20045;-78
2023/02/24 23:09:34;;;;;;;1.15;0.40;;;;;;;6.68;55.09;95964.56;10472583;28;20048;-78
2023/02/24 23:14:57;;;;;;;0.73;0.30;;;;;;;6.68;55.16;95959.03;10458514;28;20403;-78
2023/02/24 23:20:18;;;;;;;2.50;0.57;;;;;;;6.66;55.34;95953.34;10486036;28;20041;-78
2023/02/24 23:25:40;;;;;;;0.77;0.38;;;;;;;6.58;55.02;95946.06;10471774;28;20091;-77
2023/02/24 23:31:02;;;;;;;1.10;0.50;;;;;;;6.58;55.31;95931.47;10471896;28;20041;-78
2023/02/24 23:36:23;;;;;;;1.65;0.50;;;;;;;6.43;55.33;95927.22;10471576;28;20044;-77
2023/02/24 23:41:45;;;;;;;2.83;0.57;;;;;;;6.29;55.95;95921.63;10471247;28;20082;-78
2023/02/24 23:47:06;;;;;;;1.38;0.60;;;;;;;6.26;56.01;95916.56;10470704;28;20056;-78
2023/02/24 23:52:27;;;;;;;1.02;0.50;;;;;;;6.24;56.39;95919.25;10485740;28;20163;-78
2023/02/24 23:57:48;;;;;;;0.70;0.35;;;;;;;6.28;55.89;95913.94;10486522;28;20392;-78
